Map

Track Data

SID SEASON NUMBER BASIN SUBBASIN NAME ISO_TIME NATURE LAT LON WMO_WIND WMO_PRES WMO_AGENCY TRACK_TYPE DIST2LAND LANDFALL IFLAG USA_AGENCY USA_ATCF_ID USA_LAT USA_LON USA_RECORD USA_STATUS USA_WIND USA_PRES USA_SSHS USA_R34_NE USA_R34_SE USA_R34_SW USA_R34_NW USA_R50_NE USA_R50_SE USA_R50_SW USA_R50_NW USA_R64_NE USA_R64_SE USA_R64_SW USA_R64_NW USA_POCI USA_ROCI USA_RMW USA_EYE TOKYO_LAT TOKYO_LON TOKYO_GRADE TOKYO_WIND TOKYO_PRES TOKYO_R50_DIR TOKYO_R50_LONG TOKYO_R50_SHORT TOKYO_R30_DIR TOKYO_R30_LONG TOKYO_R30_SHORT TOKYO_LAND CMA_LAT CMA_LON CMA_CAT CMA_WIND CMA_PRES HKO_LAT HKO_LON HKO_CAT HKO_WIND HKO_PRES NEWDELHI_LAT NEWDELHI_LON NEWDELHI_GRADE NEWDELHI_WIND NEWDELHI_PRES NEWDELHI_CI NEWDELHI_DP NEWDELHI_POCI REUNION_LAT REUNION_LON REUNION_TYPE REUNION_WIND REUNION_PRES REUNION_TNUM REUNION_CI REUNION_RMW REUNION_R34_NE REUNION_R34_SE REUNION_R34_SW REUNION_R34_NW REUNION_R50_NE REUNION_R50_SE REUNION_R50_SW REUNION_R50_NW REUNION_R64_NE REUNION_R64_SE REUNION_R64_SW REUNION_R64_NW BOM_LAT BOM_LON BOM_TYPE BOM_WIND BOM_PRES BOM_TNUM BOM_CI BOM_RMW BOM_R34_NE BOM_R34_SE BOM_R34_SW BOM_R34_NW BOM_R50_NE BOM_R50_SE BOM_R50_SW BOM_R50_NW BOM_R64_NE BOM_R64_SE BOM_R64_SW BOM_R64_NW BOM_ROCI BOM_POCI BOM_EYE BOM_POS_METHOD BOM_PRES_METHOD NADI_LAT NADI_LON NADI_CAT NADI_WIND NADI_PRES WELLINGTON_LAT WELLINGTON_LON WELLINGTON_WIND WELLINGTON_PRES DS824_LAT DS824_LON DS824_STAGE DS824_WIND DS824_PRES TD9636_LAT TD9636_LON TD9636_STAGE TD9636_WIND TD9636_PRES TD9635_LAT TD9635_LON TD9635_WIND TD9635_PRES TD9635_ROCI NEUMANN_LAT NEUMANN_LON NEUMANN_CLASS NEUMANN_WIND NEUMANN_PRES MLC_LAT MLC_LON MLC_CLASS MLC_WIND MLC_PRES USA_GUST BOM_GUST BOM_GUST_PER REUNION_GUST REUNION_GUST_PER USA_SEAHGT USA_SEARAD_NE USA_SEARAD_SE USA_SEARAD_SW USA_SEARAD_NW STORM_SPEED STORM_DIR
1934226N15153 1934 41 WP MM NOT_NAMED 1934-08-14 09:00:00 NR 15.0000 152.700 main 1992 1992 __________O___ -1 15.0000 152.700 4 9 343
1934226N15153 1934 41 WP MM NOT_NAMED 1934-08-14 12:00:00 NR 15.4236 152.562 main 2036 2036 __________P___ -1 15.4236 152.562 4 9 343
1934226N15153 1934 41 WP MM NOT_NAMED 1934-08-14 15:00:00 NR 15.8277 152.439 main 2078 2078 __________P___ -1 15.8277 152.439 4 8 345
1934226N15153 1934 41 WP MM NOT_NAMED 1934-08-14 18:00:00 NR 16.1930 152.346 main 2119 2119 __________P___ -1 16.1930 152.346 4 7 349
1934226N15153 1934 41 WP MM NOT_NAMED 1934-08-14 21:00:00 NR 16.5000 152.300 main 2152 2152 __________O___ -1 16.5000 152.300 4 6 355
1934226N15153 1934 41 WP MM NOT_NAMED 1934-08-15 00:00:00 NR 16.7394 152.305 main 2173 2173 __________P___ -1 16.7394 152.305 4 4 2
1934226N15153 1934 41 WP MM NOT_NAMED 1934-08-15 03:00:00 NR 16.9421 152.324 main 2195 2195 __________P___ -1 16.9421 152.324 4 4 359
1934226N15153 1934 41 WP MM NOT_NAMED 1934-08-15 06:00:00 NR 17.1487 152.305 main 2216 2216 __________P___ -1 17.1487 152.305 4 5 345
1934226N15153 1934 41 WP MM NOT_NAMED 1934-08-15 09:00:00 NR 17.4000 152.200 main 2246 2246 __________O___ -1 17.4000 152.200 4 7 328
1934226N15153 1934 41 WP MM NOT_NAMED 1934-08-15 12:00:00 NR 17.7341 151.916 main 2258 2203 __________P___ -1 17.7341 151.916 4 10 319
1934226N15153 1934 41 WP MM NOT_NAMED 1934-08-15 15:00:00 NR 18.1185 151.546 main 2198 2143 __________P___ -1 18.1185 151.546 4 11 318
1934226N15153 1934 41 WP MM NOT_NAMED 1934-08-15 18:00:00 NR 18.5435 151.153 main 2143 2074 __________P___ -1 18.5435 151.153 4 11 321
1934226N15153 1934 41 WP MM NOT_NAMED 1934-08-15 21:00:00 NR 19.0000 150.800 main 2074 2020 __________O___ -1 19.0000 150.800 4 11 325
1934226N15153 1934 41 WP MM NOT_NAMED 1934-08-16 00:00:00 NR 19.4062 150.515 main 2020 1970 __________P___ -1 19.4062 150.515 4 10 330
1934226N15153 1934 41 WP MM NOT_NAMED 1934-08-16 03:00:00 NR 19.8499 150.287 main 1970 1911 __________P___ -1 19.8499 150.287 4 10 340
1934226N15153 1934 41 WP MM NOT_NAMED 1934-08-16 06:00:00 NR 20.3687 150.141 main 1902 1843 __________P___ -1 20.3687 150.141 4 12 351
1934226N15153 1934 41 WP MM NOT_NAMED 1934-08-16 09:00:00 NR 21.0000 150.100 main 1843 1782 __________O___ -1 21.0000 150.100 4 14 3
1934226N15153 1934 41 WP MM NOT_NAMED 1934-08-16 12:00:00 NR 21.7976 150.213 main 1772 1698 __________P___ -1 21.7976 150.213 4 17 10
1934226N15153 1934 41 WP MM NOT_NAMED 1934-08-16 15:00:00 NR 22.7033 150.428 main 1698 1631 __________P___ -1 22.7033 150.428 4 19 13
1934226N15153 1934 41 WP MM NOT_NAMED 1934-08-16 18:00:00 NR 23.6572 150.679 main 1622 1553 __________P___ -1 23.6572 150.679 4 20 13
1934226N15153 1934 41 WP MM NOT_NAMED 1934-08-16 21:00:00 NR 24.6000 150.900 main 1553 1490 __________O___ -1 24.6000 150.900 4 18 9
1934226N15153 1934 41 WP MM NOT_NAMED 1934-08-17 00:00:00 NR 25.4098 150.968 main 1490 1423 __________P___ -1 25.4098 150.968 4 16 3
1934226N15153 1934 41 WP MM NOT_NAMED 1934-08-17 03:00:00 NR 26.2047 150.998 main 1423 1359 __________P___ -1 26.2047 150.998 4 16 2
1934226N15153 1934 41 WP MM NOT_NAMED 1934-08-17 06:00:00 NR 27.0223 151.028 main 1359 1303 __________P___ -1 27.0223 151.028 4 17 3
1934226N15153 1934 41 WP MM NOT_NAMED 1934-08-17 09:00:00 NR 27.9000 151.100 main 1295 1234 __________O___ -1 27.9000 151.100 4 20 7
1934226N15153 1934 41 WP MM NOT_NAMED 1934-08-17 12:00:00 NR 28.9706 151.283 main 1227 1173 __________P___ -1 28.9706 151.283 4 22 9
1934226N15153 1934 41 WP MM NOT_NAMED 1934-08-17 15:00:00 NR 30.0902 151.515 main 1167 1123 __________P___ -1 30.0902 151.515 4 22 11
1934226N15153 1934 41 WP MM NOT_NAMED 1934-08-17 18:00:00 NR 31.1647 151.765 main 1126 1097 __________P___ -1 31.1647 151.765 4 21 12
1934226N15153 1934 41 WP MM NOT_NAMED 1934-08-17 21:00:00 NR 32.1000 152.000 main 1097 1088 __________O___ -1 32.1000 152.000 4 16 14
1934226N15153 1934 41 WP MM NOT_NAMED 1934-08-18 00:00:00 NR 32.7389 152.225 main 1088 1084 __________P___ -1 32.7389 152.225 4 12 17
1934226N15153 1934 41 WP MM NOT_NAMED 1934-08-18 03:00:00 NR 33.2394 152.419 main 1087 1080 __________P___ -1 33.2394 152.419 4 10 16
1934226N15153 1934 41 WP MM NOT_NAMED 1934-08-18 06:00:00 NR 33.6952 152.554 main 1089 1076 __________P___ -1 33.6952 152.554 4 10 9
1934226N15153 1934 41 WP MM NOT_NAMED 1934-08-18 09:00:00 NR 34.2000 152.600 main 1076 1049 __________O___ -1 34.2000 152.600 4 12 358
1934226N15153 1934 41 WP MM NOT_NAMED 1934-08-18 12:00:00 NR 34.9099 152.503 main 1049 995 __________P___ -1 34.9099 152.503 4 15 351
1934226N15153 1934 41 WP MM NOT_NAMED 1934-08-18 15:00:00 NR 35.6780 152.316 main 990 939 __________P___ -1 35.6780 152.316 4 16 348
1934226N15153 1934 41 WP MM NOT_NAMED 1934-08-18 18:00:00 NR 36.4570 152.096 main 932 859 __________P___ -1 36.4570 152.096 4 16 348
1934226N15153 1934 41 WP MM NOT_NAMED 1934-08-18 21:00:00 NR 37.2000 151.900 main 859 806 __________O___ -1 37.2000 151.900 4 14 353
1934226N15153 1934 41 WP MM NOT_NAMED 1934-08-19 00:00:00 NR 37.8787 151.874 main 798 748 __________P___ -1 37.8787 151.874 4 13 359
1934226N15153 1934 41 WP MM NOT_NAMED 1934-08-19 03:00:00 NR 38.5110 151.876 main 748 695 __________P___ -1 38.5110 151.876 4 12 359
1934226N15153 1934 41 WP MM NOT_NAMED 1934-08-19 06:00:00 NR 39.0878 151.840 main 695 652 __________P___ -1 39.0878 151.840 4 11 353
1934226N15153 1934 41 WP MM NOT_NAMED 1934-08-19 09:00:00 NR 39.6000 151.700 main 652 604 __________O___ -1 39.6000 151.700 4 10 337
1934226N15153 1934 41 WP MM NOT_NAMED 1934-08-19 12:00:00 NR 40.0251 151.330 main 597 543 __________P___ -1 40.0251 151.330 4 10 321
1934226N15153 1934 41 WP MM NOT_NAMED 1934-08-19 15:00:00 NR 40.3900 150.855 main 543 489 __________P___ -1 40.3900 150.855 4 10 314
1934226N15153 1934 41 WP MM NOT_NAMED 1934-08-19 18:00:00 NR 40.7346 150.352 main 489 429 __________P___ -1 40.7346 150.352 4 10 314
1934226N15153 1934 41 WP MM NOT_NAMED 1934-08-19 21:00:00 NR 41.1000 149.900 main 429 383 __________O___ -1 41.1000 149.900 4 9 323
1934226N15153 1934 41 WP MM NOT_NAMED 1934-08-20 00:00:00 NR 41.4763 149.610 main 383 346 __________P___ -1 41.4763 149.610 4 9 334
1934226N15153 1934 41 WP MM NOT_NAMED 1934-08-20 03:00:00 NR 41.8914 149.383 main 346 292 __________P___ -1 41.8914 149.383 4 10 341
1934226N15153 1934 41 WP MM NOT_NAMED 1934-08-20 06:00:00 NR 42.3859 149.191 main 292 228 __________P___ -1 42.3859 149.191 4 11 346
1934226N15153 1934 41 WP MM NOT_NAMED 1934-08-20 09:00:00 NR 43.0000 149.000 main 228 146 __________O___ -1 43.0000 149.000 4 15 347
1934226N15153 1934 41 WP MM NOT_NAMED 1934-08-20 12:00:00 NR 43.8306 148.752 main 146 54 __________P___ -1 43.8306 148.752 4 18 348
1934226N15153 1934 41 WP MM NOT_NAMED 1934-08-20 15:00:00 NR 44.7702 148.497 main 45 0 __________P___ -1 44.7702 148.497 4 19 349
1934226N15153 1934 41 WP MM NOT_NAMED 1934-08-20 18:00:00 NR 45.7246 148.243 main 45 45 __________P___ -1 45.7246 148.243 4 19 349
1934226N15153 1934 41 WP MM NOT_NAMED 1934-08-20 21:00:00 NR 46.6000 148.000 main 141 141 __________O___ -1 46.6000 148.000 4 17 346
1934226N15153 1934 41 WP MM NOT_NAMED 1934-08-21 00:00:00 NR 47.3971 147.637 main 233 199 __________P___ -1 47.3971 147.637 4 16 343
1934226N15153 1934 41 WP MM NOT_NAMED 1934-08-21 03:00:00 NR 48.0848 147.308 main 199 175 __________P___ -1 48.0848 147.308 4 13 344
1934226N15153 1934 41 WP MM NOT_NAMED 1934-08-21 06:00:00 NR 48.6050 147.124 main 175 174 __________P___ -1 48.6050 147.124 4 8 355
1934226N15153 1934 41 WP MM NOT_NAMED 1934-08-21 09:00:00 NR 48.9000 147.200 main 181 181 __________O___ -1 48.9000 147.200 4 5 49
1934226N15153 1934 41 WP MM NOT_NAMED 1934-08-21 12:00:00 NR 48.9549 147.739 main 218 218 __________P___ -1 48.9549 147.739 4 9 98
1934226N15153 1934 41 WP MM NOT_NAMED 1934-08-21 15:00:00 NR 48.7806 148.522 main 276 274 __________P___ -1 48.7806 148.522 4 12 116
1934226N15153 1934 41 WP MM NOT_NAMED 1934-08-21 18:00:00 NR 48.4399 149.368 main 262 211 __________P___ -1 48.4399 149.368 4 13 127
1934226N15153 1934 41 WP MM NOT_NAMED 1934-08-21 21:00:00 NR 48.0000 150.100 main 211 156 __________O___ -1 48.0000 150.100 4 12 138
1934226N15153 1934 41 WP MM NOT_NAMED 1934-08-22 00:00:00 NR 47.5218 150.591 main 156 115 __________P___ -1 47.5218 150.591 4 11 152
1934226N15153 1934 41 WP MM NOT_NAMED 1934-08-22 03:00:00 NR 47.0244 150.874 main 106 63 __________P___ -1 47.0244 150.874 4 10 164
1934226N15153 1934 41 WP MM NOT_NAMED 1934-08-22 06:00:00 NR 46.5151 151.021 main 63 53 __________P___ -1 46.5151 151.021 4 10 172
1934226N15153 1934 41 WP MM NOT_NAMED 1934-08-22 09:00:00 NR 46.0000 151.100 main 54 __________O___ -1 46.0000 151.100 4 10 173

Digital Typhoon Data and Search

About IBTrACS Database

This database is a web-friendly format of International Best Track Archive for Climate Stewardship (IBTrACS), a global best track data archive curated by NOAA dating back to 1842.

Updated: 2021-10-21